sensor_id;sensor_type;location;lat;lon;timestamp;pressure;altitude;pressure_sealevel;temperature
66170;BMP280;66757;44.024;20.456;2023-01-28T00:00:05;97772.53;;;2.34
66170;BMP280;66757;44.024;20.456;2023-01-28T00:02:32;97769.22;;;2.38
66170;BMP280;66757;44.024;20.456;2023-01-28T00:05:00;97769.81;;;2.46
66170;BMP280;66757;44.024;20.456;2023-01-28T00:07:25;97778.72;;;2.01
66170;BMP280;66757;44.024;20.456;2023-01-28T00:09:52;97767.53;;;1.84
66170;BMP280;66757;44.024;20.456;2023-01-28T00:12:17;97766.78;;;2.32
66170;BMP280;66757;44.024;20.456;2023-01-28T00:14:43;97767.94;;;2.19
66170;BMP280;66757;44.024;20.456;2023-01-28T00:17:11;97765.56;;;2.39
66170;BMP280;66757;44.024;20.456;2023-01-28T00:20:01;97770.38;;;2.53
66170;BMP280;66757;44.024;20.456;2023-01-28T00:22:28;97758.91;;;2.54
66170;BMP280;66757;44.024;20.456;2023-01-28T00:24:56;97770.53;;;2.68
66170;BMP280;66757;44.024;20.456;2023-01-28T00:27:22;97772.34;;;2.67
66170;BMP280;66757;44.024;20.456;2023-01-28T00:29:48;97771.50;;;2.30
66170;BMP280;66757;44.024;20.456;2023-01-28T00:32:13;97772.47;;;2.24
66170;BMP280;66757;44.024;20.456;2023-01-28T00:34:42;97776.44;;;2.53
66170;BMP280;66757;44.024;20.456;2023-01-28T00:37:19;97788.03;;;2.62
66170;BMP280;66757;44.024;20.456;2023-01-28T00:39:45;97781.16;;;2.29
66170;BMP280;66757;44.024;20.456;2023-01-28T00:42:12;97780.47;;;2.39
66170;BMP280;66757;44.024;20.456;2023-01-28T00:45:09;97781.66;;;2.26
66170;BMP280;66757;44.024;20.456;2023-01-28T00:47:47;97792.38;;;2.52
66170;BMP280;66757;44.024;20.456;2023-01-28T00:50:33;97786.22;;;2.63
66170;BMP280;66757;44.024;20.456;2023-01-28T00:53:25;97790.63;;;2.57
66170;BMP280;66757;44.024;20.456;2023-01-28T00:55:56;97800.53;;;2.33
66170;BMP280;66757;44.024;20.456;2023-01-28T00:58:54;97794.16;;;2.46
66170;BMP280;66757;44.024;20.456;2023-01-28T01:01:42;97788.91;;;2.46
66170;BMP280;66757;44.024;20.456;2023-01-28T01:07:30;97794.88;;;2.41
66170;BMP280;66757;44.024;20.456;2023-01-28T01:10:22;97806.31;;;2.57
66170;BMP280;66757;44.024;20.456;2023-01-28T01:13:22;97801.47;;;2.22
66170;BMP280;66757;44.024;20.456;2023-01-28T01:16:10;97801.97;;;2.19
66170;BMP280;66757;44.024;20.456;2023-01-28T01:18:38;97806.38;;;2.40
66170;BMP280;66757;44.024;20.456;2023-01-28T01:21:20;97809.78;;;2.41
66170;BMP280;66757;44.024;20.456;2023-01-28T01:23:54;97812.09;;;2.37
66170;BMP280;66757;44.024;20.456;2023-01-28T01:26:50;97819.03;;;2.75
66170;BMP280;66757;44.024;20.456;2023-01-28T01:29:21;97820.75;;;2.60
66170;BMP280;66757;44.024;20.456;2023-01-28T01:31:47;97820.75;;;2.16
66170;BMP280;66757;44.024;20.456;2023-01-28T01:34:13;97823.69;;;2.20
66170;BMP280;66757;44.024;20.456;2023-01-28T01:36:44;97821.97;;;2.79
66170;BMP280;66757;44.024;20.456;2023-01-28T01:39:50;97822.00;;;1.92
66170;BMP280;66757;44.024;20.456;2023-01-28T01:42:23;97814.22;;;2.67
66170;BMP280;66757;44.024;20.456;2023-01-28T01:48:01;97820.06;;;2.04
66170;BMP280;66757;44.024;20.456;2023-01-28T01:51:10;97820.69;;;2.55
66170;BMP280;66757;44.024;20.456;2023-01-28T01:53:30;97820.28;;;2.68
66170;BMP280;66757;44.024;20.456;2023-01-28T01:56:27;97818.13;;;2.60
66170;BMP280;66757;44.024;20.456;2023-01-28T01:59:14;97823.00;;;1.86
66170;BMP280;66757;44.024;20.456;2023-01-28T02:02:20;97827.81;;;2.16
66170;BMP280;66757;44.024;20.456;2023-01-28T02:07:50;97831.28;;;2.21
66170;BMP280;66757;44.024;20.456;2023-01-28T02:10:22;97827.00;;;2.37
66170;BMP280;66757;44.024;20.456;2023-01-28T02:12:52;97829.00;;;2.25
66170;BMP280;66757;44.024;20.456;2023-01-28T02:15:25;97826.59;;;2.45
66170;BMP280;66757;44.024;20.456;2023-01-28T02:17:54;97831.31;;;2.48
66170;BMP280;66757;44.024;20.456;2023-01-28T02:26:18;97828.75;;;2.26
66170;BMP280;66757;44.024;20.456;2023-01-28T02:40:29;97822.84;;;2.14
66170;BMP280;66757;44.024;20.456;2023-01-28T02:43:00;97828.66;;;1.99
66170;BMP280;66757;44.024;20.456;2023-01-28T02:45:31;97831.78;;;2.18
66170;BMP280;66757;44.024;20.456;2023-01-28T02:48:20;97827.75;;;2.32
66170;BMP280;66757;44.024;20.456;2023-01-28T02:51:02;97816.84;;;1.97
66170;BMP280;66757;44.024;20.456;2023-01-28T02:53:51;97827.44;;;2.51
66170;BMP280;66757;44.024;20.456;2023-01-28T02:56:29;97825.38;;;2.31
66170;BMP280;66757;44.024;20.456;2023-01-28T03:02:21;97825.88;;;2.28
66170;BMP280;66757;44.024;20.456;2023-01-28T03:05:49;97827.38;;;2.46
66170;BMP280;66757;44.024;20.456;2023-01-28T03:07:56;97827.63;;;2.44
66170;BMP280;66757;44.024;20.456;2023-01-28T03:10:25;97841.84;;;2.31
66170;BMP280;66757;44.024;20.456;2023-01-28T03:12:54;97837.34;;;2.49
66170;BMP280;66757;44.024;20.456;2023-01-28T03:15:42;97833.84;;;2.16
66170;BMP280;66757;44.024;20.456;2023-01-28T03:18:34;97831.63;;;2.52
66170;BMP280;66757;44.024;20.456;2023-01-28T03:21:28;97834.72;;;2.49
66170;BMP280;66757;44.024;20.456;2023-01-28T03:24:26;97839.13;;;2.43
66170;BMP280;66757;44.024;20.456;2023-01-28T03:30:10;97843.09;;;2.24
66170;BMP280;66757;44.024;20.456;2023-01-28T03:32:57;97833.91;;;2.21
66170;BMP280;66757;44.024;20.456;2023-01-28T03:35:48;97827.28;;;2.13
66170;BMP280;66757;44.024;20.456;2023-01-28T03:38:33;97828.06;;;2.14
66170;BMP280;66757;44.024;20.456;2023-01-28T03:41:10;97827.91;;;2.48
66170;BMP280;66757;44.024;20.456;2023-01-28T03:43:37;97837.34;;;2.49
66170;BMP280;66757;44.024;20.456;2023-01-28T03:46:03;97829.09;;;2.57
66170;BMP280;66757;44.024;20.456;2023-01-28T03:48:31;97836.38;;;2.82
66170;BMP280;66757;44.024;20.456;2023-01-28T03:50:57;97837.66;;;2.52
66170;BMP280;66757;44.024;20.456;2023-01-28T03:53:27;97837.16;;;2.33
66170;BMP280;66757;44.024;20.456;2023-01-28T03:55:54;97833.16;;;2.48
66170;BMP280;66757;44.024;20.456;2023-01-28T03:58:27;97839.88;;;2.65
66170;BMP280;66757;44.024;20.456;2023-01-28T04:01:12;97835.50;;;2.71
66170;BMP280;66757;44.024;20.456;2023-01-28T04:03:40;97840.94;;;2.21
66170;BMP280;66757;44.024;20.456;2023-01-28T04:06:08;97841.84;;;2.31
66170;BMP280;66757;44.024;20.456;2023-01-28T04:08:35;97840.03;;;2.10
66170;BMP280;66757;44.024;20.456;2023-01-28T04:11:03;97849.06;;;2.02
66170;BMP280;66757;44.024;20.456;2023-01-28T04:13:45;97839.22;;;2.26
66170;BMP280;66757;44.024;20.456;2023-01-28T04:16:13;97843.50;;;2.37
66170;BMP280;66757;44.024;20.456;2023-01-28T04:18:41;97839.41;;;2.68
66170;BMP280;66757;44.024;20.456;2023-01-28T04:21:11;97843.44;;;2.32
66170;BMP280;66757;44.024;20.456;2023-01-28T04:24:01;97849.41;;;1.67
66170;BMP280;66757;44.024;20.456;2023-01-28T04:26:54;97853.72;;;1.78
66170;BMP280;66757;44.024;20.456;2023-01-28T04:29:22;97847.94;;;2.37
66170;BMP280;66757;44.024;20.456;2023-01-28T04:31:50;97848.81;;;2.42
66170;BMP280;66757;44.024;20.456;2023-01-28T04:34:17;97850.47;;;2.75
66170;BMP280;66757;44.024;20.456;2023-01-28T04:36:45;97855.38;;;2.94
66170;BMP280;66757;44.024;20.456;2023-01-28T04:39:11;97864.66;;;3.06
66170;BMP280;66757;44.024;20.456;2023-01-28T04:41:39;97860.88;;;2.97
66170;BMP280;66757;44.024;20.456;2023-01-28T04:44:07;97857.31;;;3.09
66170;BMP280;66757;44.024;20.456;2023-01-28T04:46:34;97864.59;;;2.74
66170;BMP280;66757;44.024;20.456;2023-01-28T04:49:02;97867.59;;;2.61
66170;BMP280;66757;44.024;20.456;2023-01-28T04:51:29;97864.31;;;2.98
66170;BMP280;66757;44.024;20.456;2023-01-28T04:53:58;97867.69;;;2.93
66170;BMP280;66757;44.024;20.456;2023-01-28T04:56:27;97867.09;;;2.86
66170;BMP280;66757;44.024;20.456;2023-01-28T04:58:53;97875.50;;;2.88
66170;BMP280;66757;44.024;20.456;2023-01-28T05:01:21;97863.72;;;2.64
66170;BMP280;66757;44.024;20.456;2023-01-28T05:03:50;97872.03;;;2.17
66170;BMP280;66757;44.024;20.456;2023-01-28T05:06:16;97869.72;;;2.86
66170;BMP280;66757;44.024;20.456;2023-01-28T05:09:11;97870.81;;;2.95
66170;BMP280;66757;44.024;20.456;2023-01-28T05:11:41;97872.22;;;2.10
66170;BMP280;66757;44.024;20.456;2023-01-28T05:14:07;97870.47;;;2.60
66170;BMP280;66757;44.024;20.456;2023-01-28T05:16:33;97877.69;;;3.01
66170;BMP280;66757;44.024;20.456;2023-01-28T05:19:00;97873.94;;;2.92
66170;BMP280;66757;44.024;20.456;2023-01-28T05:21:28;97874.00;;;2.49
66170;BMP280;66757;44.024;20.456;2023-01-28T05:23:58;97881.72;;;2.38
66170;BMP280;66757;44.024;20.456;2023-01-28T05:26:55;97886.19;;;2.60
66170;BMP280;66757;44.024;20.456;2023-01-28T05:29:24;97888.25;;;3.12
66170;BMP280;66757;44.024;20.456;2023-01-28T05:31:54;97891.16;;;2.83
66170;BMP280;66757;44.024;20.456;2023-01-28T05:34:23;97895.19;;;2.47
66170;BMP280;66757;44.024;20.456;2023-01-28T05:36:50;97893.81;;;2.66
66170;BMP280;66757;44.024;20.456;2023-01-28T05:39:22;97894.13;;;2.92
66170;BMP280;66757;44.024;20.456;2023-01-28T05:41:49;97893.09;;;2.49
66170;BMP280;66757;44.024;20.456;2023-01-28T05:44:19;97899.56;;;2.63
66170;BMP280;66757;44.024;20.456;2023-01-28T05:46:49;97896.22;;;2.46
66170;BMP280;66757;44.024;20.456;2023-01-28T05:49:24;97892.69;;;2.57
66170;BMP280;66757;44.024;20.456;2023-01-28T05:51:51;97906.81;;;2.56
66170;BMP280;66757;44.024;20.456;2023-01-28T05:54:21;97904.97;;;2.79
66170;BMP280;66757;44.024;20.456;2023-01-28T05:56:52;97909.03;;;3.18
66170;BMP280;66757;44.024;20.456;2023-01-28T06:02:15;97912.47;;;3.19
66170;BMP280;66757;44.024;20.456;2023-01-28T06:04:49;97910.63;;;3.19
66170;BMP280;66757;44.024;20.456;2023-01-28T06:07:20;97915.88;;;2.49
66170;BMP280;66757;44.024;20.456;2023-01-28T06:09:49;97920.63;;;2.73
66170;BMP280;66757;44.024;20.456;2023-01-28T06:12:19;97918.69;;;2.64
66170;BMP280;66757;44.024;20.456;2023-01-28T06:14:46;97927.22;;;3.03
66170;BMP280;66757;44.024;20.456;2023-01-28T06:17:14;97921.03;;;2.87
66170;BMP280;66757;44.024;20.456;2023-01-28T06:19:40;97935.53;;;2.73
66170;BMP280;66757;44.024;20.456;2023-01-28T06:22:06;97934.06;;;2.82
66170;BMP280;66757;44.024;20.456;2023-01-28T06:24:32;97928.81;;;2.82
66170;BMP280;66757;44.024;20.456;2023-01-28T06:26:58;97938.88;;;2.90
66170;BMP280;66757;44.024;20.456;2023-01-28T06:29:25;97944.25;;;2.57
66170;BMP280;66757;44.024;20.456;2023-01-28T06:31:51;97938.13;;;2.29
66170;BMP280;66757;44.024;20.456;2023-01-28T06:34:17;97951.81;;;2.53
66170;BMP280;66757;44.024;20.456;2023-01-28T06:36:42;97953.22;;;2.83
66170;BMP280;66757;44.024;20.456;2023-01-28T06:39:08;97956.91;;;2.87
66170;BMP280;66757;44.024;20.456;2023-01-28T06:41:33;97954.06;;;2.88
66170;BMP280;66757;44.024;20.456;2023-01-28T06:43:59;97955.00;;;2.82
66170;BMP280;66757;44.024;20.456;2023-01-28T06:46:24;97964.13;;;3.01
66170;BMP280;66757;44.024;20.456;2023-01-28T06:48:50;97963.66;;;3.04
66170;BMP280;66757;44.024;20.456;2023-01-28T06:51:15;97972.44;;;3.15
66170;BMP280;66757;44.024;20.456;2023-01-28T06:53:42;97968.78;;;3.43
66170;BMP280;66757;44.024;20.456;2023-01-28T06:56:07;97969.28;;;2.96
66170;BMP280;66757;44.024;20.456;2023-01-28T06:58:33;97981.00;;;3.11
66170;BMP280;66757;44.024;20.456;2023-01-28T07:00:59;97980.97;;;3.32
66170;BMP280;66757;44.024;20.456;2023-01-28T07:03:25;97982.81;;;3.32
66170;BMP280;66757;44.024;20.456;2023-01-28T07:05:51;97988.31;;;3.09
66170;BMP280;66757;44.024;20.456;2023-01-28T07:08:16;97985.00;;;2.96
66170;BMP280;66757;44.024;20.456;2023-01-28T07:10:43;97994.78;;;2.57
66170;BMP280;66757;44.024;20.456;2023-01-28T07:13:09;97998.53;;;2.44
66170;BMP280;66757;44.024;20.456;2023-01-28T07:15:34;97999.56;;;2.65
66170;BMP280;66757;44.024;20.456;2023-01-28T07:18:00;98002.03;;;2.94
66170;BMP280;66757;44.024;20.456;2023-01-28T07:20:25;98000.19;;;2.72
66170;BMP280;66757;44.024;20.456;2023-01-28T07:22:51;98002.03;;;2.94
66170;BMP280;66757;44.024;20.456;2023-01-28T07:25:16;97998.63;;;2.71
66170;BMP280;66757;44.024;20.456;2023-01-28T07:27:48;98005.25;;;2.79
66170;BMP280;66757;44.024;20.456;2023-01-28T07:30:14;98013.66;;;2.81
66170;BMP280;66757;44.024;20.456;2023-01-28T07:32:40;98015.41;;;2.97
66170;BMP280;66757;44.024;20.456;2023-01-28T07:35:06;98015.13;;;2.72
66170;BMP280;66757;44.024;20.456;2023-01-28T07:37:31;98016.22;;;2.76
66170;BMP280;66757;44.024;20.456;2023-01-28T07:39:57;98021.94;;;2.73
66170;BMP280;66757;44.024;20.456;2023-01-28T07:42:22;98020.78;;;3.29
66170;BMP280;66757;44.024;20.456;2023-01-28T07:44:47;98023.31;;;3.46
66170;BMP280;66757;44.024;20.456;2023-01-28T07:47:14;98022.50;;;3.19
66170;BMP280;66757;44.024;20.456;2023-01-28T07:49:39;98030.94;;;3.26
66170;BMP280;66757;44.024;20.456;2023-01-28T07:52:06;98025.94;;;3.46
66170;BMP280;66757;44.024;20.456;2023-01-28T07:54:31;98020.81;;;2.86
66170;BMP280;66757;44.024;20.456;2023-01-28T07:56:57;98024.38;;;3.01
66170;BMP280;66757;44.024;20.456;2023-01-28T07:59:22;98026.91;;;3.13
66170;BMP280;66757;44.024;20.456;2023-01-28T08:01:48;98034.44;;;3.10
66170;BMP280;66757;44.024;20.456;2023-01-28T08:04:13;98029.34;;;3.25
66170;BMP280;66757;44.024;20.456;2023-01-28T08:06:39;98028.25;;;3.16
66170;BMP280;66757;44.024;20.456;2023-01-28T08:09:05;98030.50;;;2.85
66170;BMP280;66757;44.024;20.456;2023-01-28T08:11:36;98035.41;;;3.03
66170;BMP280;66757;44.024;20.456;2023-01-28T08:14:02;98032.47;;;3.44
66170;BMP280;66757;44.024;20.456;2023-01-28T08:16:28;98030.56;;;3.39
66170;BMP280;66757;44.024;20.456;2023-01-28T08:18:53;98032.78;;;3.03
66170;BMP280;66757;44.024;20.456;2023-01-28T08:21:19;98035.72;;;3.29
66170;BMP280;66757;44.024;20.456;2023-01-28T08:23:44;98040.72;;;3.30
66170;BMP280;66757;44.024;20.456;2023-01-28T08:26:10;98039.56;;;3.43
66170;BMP280;66757;44.024;20.456;2023-01-28T08:28:35;98043.22;;;3.42
66170;BMP280;66757;44.024;20.456;2023-01-28T08:31:01;98049.84;;;3.06
66170;BMP280;66757;44.024;20.456;2023-01-28T08:33:27;98042.97;;;3.44
66170;BMP280;66757;44.024;20.456;2023-01-28T08:35:52;98049.75;;;2.57
66170;BMP280;66757;44.024;20.456;2023-01-28T08:38:18;98049.69;;;2.74
66170;BMP280;66757;44.024;20.456;2023-01-28T08:40:45;98046.25;;;3.12
66170;BMP280;66757;44.024;20.456;2023-01-28T08:43:10;98055.94;;;3.12
66170;BMP280;66757;44.024;20.456;2023-01-28T08:45:35;98056.66;;;2.47
66170;BMP280;66757;44.024;20.456;2023-01-28T08:48:05;98057.91;;;2.99
66170;BMP280;66757;44.024;20.456;2023-01-28T08:50:34;98056.69;;;3.07
66170;BMP280;66757;44.024;20.456;2023-01-28T08:53:09;98058.31;;;2.91
66170;BMP280;66757;44.024;20.456;2023-01-28T08:55:34;98055.50;;;2.76
66170;BMP280;66757;44.024;20.456;2023-01-28T08:58:08;98061.34;;;3.27
66170;BMP280;66757;44.024;20.456;2023-01-28T09:00:34;98065.50;;;3.01
66170;BMP280;66757;44.024;20.456;2023-01-28T09:03:01;98067.84;;;2.59
66170;BMP280;66757;44.024;20.456;2023-01-28T09:05:26;98072.41;;;2.52
66170;BMP280;66757;44.024;20.456;2023-01-28T09:07:52;98068.13;;;3.01
66170;BMP280;66757;44.024;20.456;2023-01-28T09:10:18;98073.13;;;3.02
66170;BMP280;66757;44.024;20.456;2023-01-28T09:12:46;98077.81;;;2.62
66170;BMP280;66757;44.024;20.456;2023-01-28T09:15:12;98075.97;;;2.79
66170;BMP280;66757;44.024;20.456;2023-01-28T09:17:38;98067.53;;;2.94
66170;BMP280;66757;44.024;20.456;2023-01-28T09:20:05;98066.72;;;2.93
66170;BMP280;66757;44.024;20.456;2023-01-28T09:22:31;98071.41;;;2.91
66170;BMP280;66757;44.024;20.456;2023-01-28T09:24:57;98069.13;;;3.17
66170;BMP280;66757;44.024;20.456;2023-01-28T09:27:22;98073.63;;;2.99
66170;BMP280;66757;44.024;20.456;2023-01-28T09:29:48;98075.44;;;2.60
66170;BMP280;66757;44.024;20.456;2023-01-28T09:32:14;98073.56;;;3.16
66170;BMP280;66757;44.024;20.456;2023-01-28T09:34:40;98072.22;;;2.92
66170;BMP280;66757;44.024;20.456;2023-01-28T09:37:05;98077.16;;;2.88
66170;BMP280;66757;44.024;20.456;2023-01-28T09:39:30;98074.19;;;2.63
66170;BMP280;66757;44.024;20.456;2023-01-28T09:45:00;98071.97;;;2.21
66170;BMP280;66757;44.024;20.456;2023-01-28T09:47:34;98073.19;;;2.02
66170;BMP280;66757;44.024;20.456;2023-01-28T09:50:05;98077.72;;;2.73
66170;BMP280;66757;44.024;20.456;2023-01-28T09:52:35;98071.66;;;2.90
66170;BMP280;66757;44.024;20.456;2023-01-28T09:55:23;98077.50;;;2.41
66170;BMP280;66757;44.024;20.456;2023-01-28T09:57:53;98077.31;;;2.65
66170;BMP280;66757;44.024;20.456;2023-01-28T10:00:34;98073.03;;;2.97
66170;BMP280;66757;44.024;20.456;2023-01-28T10:07:10;98074.78;;;3.09
66170;BMP280;66757;44.024;20.456;2023-01-28T10:12:56;98078.63;;;2.62
66170;BMP280;66757;44.024;20.456;2023-01-28T10:18:10;98078.03;;;3.16
66170;BMP280;66757;44.024;20.456;2023-01-28T10:20:46;98078.91;;;2.83
66170;BMP280;66757;44.024;20.456;2023-01-28T10:23:43;98072.44;;;2.18
66170;BMP280;66757;44.024;20.456;2023-01-28T10:26:23;98075.72;;;3.19
66170;BMP280;66757;44.024;20.456;2023-01-28T10:28:53;98070.59;;;3.56
66170;BMP280;66757;44.024;20.456;2023-01-28T10:31:21;98068.94;;;3.45
66170;BMP280;66757;44.024;20.456;2023-01-28T10:33:47;98073.91;;;3.03
66170;BMP280;66757;44.024;20.456;2023-01-28T10:36:13;98069.19;;;3.22
66170;BMP280;66757;44.024;20.456;2023-01-28T10:38:39;98078.09;;;2.82
66170;BMP280;66757;44.024;20.456;2023-01-28T10:41:05;98073.97;;;2.86
66170;BMP280;66757;44.024;20.456;2023-01-28T10:43:36;98077.31;;;3.25
66170;BMP280;66757;44.024;20.456;2023-01-28T10:46:16;98085.22;;;3.47
66170;BMP280;66757;44.024;20.456;2023-01-28T10:51:32;98080.09;;;2.97
66170;BMP280;66757;44.024;20.456;2023-01-28T10:53:59;98075.09;;;2.95
66170;BMP280;66757;44.024;20.456;2023-01-28T10:56:27;98079.41;;;3.23
66170;BMP280;66757;44.024;20.456;2023-01-28T10:59:01;98079.41;;;3.01
66170;BMP280;66757;44.024;20.456;2023-01-28T11:01:58;98074.59;;;2.93
66170;BMP280;66757;44.024;20.456;2023-01-28T11:09:29;98075.56;;;3.09
66170;BMP280;66757;44.024;20.456;2023-01-28T11:11:56;98074.22;;;3.28
66170;BMP280;66757;44.024;20.456;2023-01-28T11:14:23;98082.59;;;3.52
66170;BMP280;66757;44.024;20.456;2023-01-28T11:16:50;98076.69;;;2.96
66170;BMP280;66757;44.024;20.456;2023-01-28T11:19:18;98081.69;;;3.15
66170;BMP280;66757;44.024;20.456;2023-01-28T11:21:53;98081.84;;;3.30
66170;BMP280;66757;44.024;20.456;2023-01-28T11:24:22;98077.69;;;3.34
66170;BMP280;66757;44.024;20.456;2023-01-28T11:26:52;98078.81;;;3.16
66170;BMP280;66757;44.024;20.456;2023-01-28T11:29:51;98074.44;;;3.22
66170;BMP280;66757;44.024;20.456;2023-01-28T11:32:19;98081.72;;;3.42
66170;BMP280;66757;44.024;20.456;2023-01-28T11:34:53;98074.53;;;3.32
66170;BMP280;66757;44.024;20.456;2023-01-28T11:37:23;98069.72;;;3.02
66170;BMP280;66757;44.024;20.456;2023-01-28T11:40:00;98075.09;;;3.34
66170;BMP280;66757;44.024;20.456;2023-01-28T11:42:25;98074.22;;;3.06
66170;BMP280;66757;44.024;20.456;2023-01-28T11:44:52;98076.16;;;2.56
66170;BMP280;66757;44.024;20.456;2023-01-28T11:50:14;98073.00;;;3.36
66170;BMP280;66757;44.024;20.456;2023-01-28T11:55:58;98068.25;;;3.33
66170;BMP280;66757;44.024;20.456;2023-01-28T12:01:51;98070.53;;;2.64
66170;BMP280;66757;44.024;20.456;2023-01-28T12:04:19;98068.03;;;2.96
66170;BMP280;66757;44.024;20.456;2023-01-28T12:25:38;98069.53;;;2.87
66170;BMP280;66757;44.024;20.456;2023-01-28T12:28:17;98065.31;;;2.86
66170;BMP280;66757;44.024;20.456;2023-01-28T12:30:59;98062.97;;;3.28
66170;BMP280;66757;44.024;20.456;2023-01-28T12:39:13;98064.66;;;3.39
66170;BMP280;66757;44.024;20.456;2023-01-28T12:41:47;98072.16;;;3.09
66170;BMP280;66757;44.024;20.456;2023-01-28T12:44:21;98071.59;;;2.85
66170;BMP280;66757;44.024;20.456;2023-01-28T12:46:51;98080.81;;;2.87
66170;BMP280;66757;44.024;20.456;2023-01-28T12:49:21;98079.09;;;3.42
66170;BMP280;66757;44.024;20.456;2023-01-28T12:54:34;98081.16;;;3.40
66170;BMP280;66757;44.024;20.456;2023-01-28T12:57:01;98073.50;;;3.11
66170;BMP280;66757;44.024;20.456;2023-01-28T12:59:41;98082.69;;;2.92
66170;BMP280;66757;44.024;20.456;2023-01-28T13:07:26;98078.53;;;3.40
66170;BMP280;66757;44.024;20.456;2023-01-28T13:10:03;98090.31;;;3.37
66170;BMP280;66757;44.024;20.456;2023-01-28T13:12:30;98093.81;;;3.21
66170;BMP280;66757;44.024;20.456;2023-01-28T13:14:57;98088.88;;;3.51
66170;BMP280;66757;44.024;20.456;2023-01-28T13:17:29;98090.09;;;3.17
66170;BMP280;66757;44.024;20.456;2023-01-28T13:19:56;98097.41;;;3.15
66170;BMP280;66757;44.024;20.456;2023-01-28T13:22:31;98093.31;;;3.46
66170;BMP280;66757;44.024;20.456;2023-01-28T13:25:21;98090.81;;;3.34
66170;BMP280;66757;44.024;20.456;2023-01-28T13:33:05;98098.81;;;3.44
66170;BMP280;66757;44.024;20.456;2023-01-28T13:35:36;98107.09;;;2.97
66170;BMP280;66757;44.024;20.456;2023-01-28T13:38:07;98104.16;;;3.32
66170;BMP280;66757;44.024;20.456;2023-01-28T13:40:33;98115.13;;;3.29
66170;BMP280;66757;44.024;20.456;2023-01-28T13:43:05;98115.59;;;3.26
66170;BMP280;66757;44.024;20.456;2023-01-28T13:45:32;98115.63;;;3.48
66170;BMP280;66757;44.024;20.456;2023-01-28T13:48:26;98116.16;;;3.50
66170;BMP280;66757;44.024;20.456;2023-01-28T13:50:54;98118.28;;;3.53
66170;BMP280;66757;44.024;20.456;2023-01-28T13:53:29;98119.00;;;3.44
66170;BMP280;66757;44.024;20.456;2023-01-28T13:55:57;98125.91;;;3.33
66170;BMP280;66757;44.024;20.456;2023-01-28T14:01:28;98121.03;;;3.20
66170;BMP280;66757;44.024;20.456;2023-01-28T14:04:17;98134.16;;;3.03
66170;BMP280;66757;44.024;20.456;2023-01-28T14:12:31;98144.81;;;3.35
66170;BMP280;66757;44.024;20.456;2023-01-28T14:17:44;98149.16;;;3.08
66170;BMP280;66757;44.024;20.456;2023-01-28T14:20:39;98147.34;;;3.52
66170;BMP280;66757;44.024;20.456;2023-01-28T14:23:16;98150.09;;;3.40
66170;BMP280;66757;44.024;20.456;2023-01-28T14:31:31;98158.88;;;3.51
66170;BMP280;66757;44.024;20.456;2023-01-28T14:34:05;98154.31;;;3.41
66170;BMP280;66757;44.024;20.456;2023-01-28T14:36:37;98166.19;;;3.27
66170;BMP280;66757;44.024;20.456;2023-01-28T14:39:03;98162.28;;;2.74
66170;BMP280;66757;44.024;20.456;2023-01-28T14:41:28;98156.28;;;2.90
66170;BMP280;66757;44.024;20.456;2023-01-28T14:43:54;98165.44;;;3.10
66170;BMP280;66757;44.024;20.456;2023-01-28T14:46:50;98163.34;;;2.90
66170;BMP280;66757;44.024;20.456;2023-01-28T14:49:40;98169.25;;;3.02
66170;BMP280;66757;44.024;20.456;2023-01-28T15:00:00;98178.16;;;3.18
66170;BMP280;66757;44.024;20.456;2023-01-28T15:02:28;98179.97;;;3.17
66170;BMP280;66757;44.024;20.456;2023-01-28T15:05:07;98179.50;;;3.03
66170;BMP280;66757;44.024;20.456;2023-01-28T15:07:33;98171.75;;;2.92
66170;BMP280;66757;44.024;20.456;2023-01-28T15:10:05;98183.88;;;2.81
66170;BMP280;66757;44.024;20.456;2023-01-28T15:12:38;98184.94;;;2.35
66170;BMP280;66757;44.024;20.456;2023-01-28T15:15:15;98194.28;;;2.76
66170;BMP280;66757;44.024;20.456;2023-01-28T15:17:42;98201.06;;;2.27
66170;BMP280;66757;44.024;20.456;2023-01-28T15:20:14;98204.72;;;3.10
66170;BMP280;66757;44.024;20.456;2023-01-28T15:22:41;98212.84;;;2.58
66170;BMP280;66757;44.024;20.456;2023-01-28T15:25:17;98201.81;;;2.56
66170;BMP280;66757;44.024;20.456;2023-01-28T15:27:43;98207.75;;;2.51
66170;BMP280;66757;44.024;20.456;2023-01-28T15:32:44;98203.97;;;2.75
66170;BMP280;66757;44.024;20.456;2023-01-28T15:35:11;98202.06;;;2.71
66170;BMP280;66757;44.024;20.456;2023-01-28T15:37:38;98207.03;;;2.39
66170;BMP280;66757;44.024;20.456;2023-01-28T15:40:05;98217.66;;;2.66
66170;BMP280;66757;44.024;20.456;2023-01-28T15:42:31;98206.00;;;3.07
66170;BMP280;66757;44.024;20.456;2023-01-28T15:44:57;98216.03;;;2.60
66170;BMP280;66757;44.024;20.456;2023-01-28T15:47:27;98210.28;;;2.96
66170;BMP280;66757;44.024;20.456;2023-01-28T15:49:56;98216.97;;;3.21
66170;BMP280;66757;44.024;20.456;2023-01-28T15:52:29;98217.94;;;3.15
66170;BMP280;66757;44.024;20.456;2023-01-28T15:54:57;98216.41;;;2.68
66170;BMP280;66757;44.024;20.456;2023-01-28T15:57:33;98222.22;;;2.87
66170;BMP280;66757;44.024;20.456;2023-01-28T16:02:31;98225.69;;;3.10
66170;BMP280;66757;44.024;20.456;2023-01-28T16:04:58;98234.75;;;3.19
66170;BMP280;66757;44.024;20.456;2023-01-28T16:07:27;98231.34;;;3.18
66170;BMP280;66757;44.024;20.456;2023-01-28T16:09:56;98231.75;;;2.93
66170;BMP280;66757;44.024;20.456;2023-01-28T16:12:22;98239.84;;;2.92
66170;BMP280;66757;44.024;20.456;2023-01-28T16:14:54;98234.44;;;3.15
66170;BMP280;66757;44.024;20.456;2023-01-28T16:17:23;98241.66;;;3.08
66170;BMP280;66757;44.024;20.456;2023-01-28T16:19:58;98239.13;;;3.13
66170;BMP280;66757;44.024;20.456;2023-01-28T16:22:36;98244.03;;;3.10
66170;BMP280;66757;44.024;20.456;2023-01-28T16:25:25;98254.44;;;2.88
66170;BMP280;66757;44.024;20.456;2023-01-28T16:27:51;98260.06;;;2.63
66170;BMP280;66757;44.024;20.456;2023-01-28T16:30:17;98267.31;;;3.23
66170;BMP280;66757;44.024;20.456;2023-01-28T16:32:43;98258.94;;;3.26
66170;BMP280;66757;44.024;20.456;2023-01-28T16:35:13;98269.25;;;2.82
66170;BMP280;66757;44.024;20.456;2023-01-28T16:37:39;98269.22;;;2.94
66170;BMP280;66757;44.024;20.456;2023-01-28T16:40:05;98273.66;;;3.10
66170;BMP280;66757;44.024;20.456;2023-01-28T16:42:31;98273.28;;;2.56
66170;BMP280;66757;44.024;20.456;2023-01-28T16:44:57;98277.88;;;2.94
66170;BMP280;66757;44.024;20.456;2023-01-28T16:47:22;98273.53;;;2.55